Time;durP1;ratioP1;P1;durP2;ratioP2;P2;SDS_P1;SDS_P2;PMS_P1;PMS_P2;Temp;Humidity;BMP_temperature;BMP_pressure;BME280_temperature;BME280_humidity;BME280_pressure;Samples;Min_cycle;Max_cycle;Signal;HPM_P1;HPM_P2
2022/07/16 00:03:19;;;;;;;;;;;;;;;;;;4868655;29;19934;-85
2022/07/16 00:05:45;;;;;;;;;;;;;;;;;;4855326;29;19935;-85
2022/07/16 00:08:11;;;;;;;;;;;;;;;;;;4857663;29;20034;-86
2022/07/16 00:10:37;;;;;;;;;;;;;;;;;;4867841;29;20026;-85
2022/07/16 00:13:03;;;;;;;;;;;;;;;;;;4880784;29;19927;-85
2022/07/16 00:15:29;;;;;;;;;;;;;;;;;;4871168;29;19927;-85
2022/07/16 00:20:40;;;;;;;;;;;;;;;;;;4874316;29;20057;-85
2022/07/16 00:23:06;;;;;;;;;;;;;;;;;;4856353;29;21101;-85
2022/07/16 00:25:32;;;;;;;;;;;;;;;;;;4878216;29;19936;-85
2022/07/16 00:27:58;;;;;;;;;;;;;;;;;;4868152;29;20271;-85
2022/07/16 00:30:24;;;;;;;;;;;;;;;;;;4850326;29;19931;-85
2022/07/16 00:32:50;;;;;;;;;;;;;;;;;;4868523;29;19923;-85
2022/07/16 00:35:16;;;;;;;;;;;;;;;;;;4875990;29;19998;-85
2022/07/16 00:37:42;;;;;;;;;;;;;;;;;;4875510;29;20022;-85
2022/07/16 00:40:08;;;;;;;;;;;;;;;;;;4855532;29;21074;-85
2022/07/16 00:42:34;;;;;;;;;;;;;;;;;;4874741;29;20389;-85
2022/07/16 00:45:00;;;;;;;;;;;;;;;;;;4875244;29;19923;-85
2022/07/16 00:47:26;;;;;;;;;;;;;;;;;;4875601;29;19923;-85
2022/07/16 00:49:52;;;;;;;;;;;;;;;;;;4864240;29;20450;-85
2022/07/16 00:52:18;;;;;;;;;;;;;;;;;;4855380;29;20049;-85
2022/07/16 00:54:44;;;;;;;;;;;;;;;;;;4866480;29;19959;-85
2022/07/16 00:57:09;;;;;;;;;;;;;;;;;;4866784;29;19930;-85
2022/07/16 00:59:35;;;;;;;;;;;;;;;;;;4855732;29;19923;-85
2022/07/16 01:02:01;;;;;;;;;;;;;;;;;;4863263;29;19950;-85
2022/07/16 01:04:27;;;;;;;;;;;;;;;;;;4850707;29;19931;-85
2022/07/16 01:06:53;;;;;;;;;;;;;;;;;;4866585;29;20988;-85
2022/07/16 01:09:19;;;;;;;;;;;;;;;;;;4879145;29;20328;-85
2022/07/16 01:11:45;;;;;;;;;;;;;;;;;;4873332;29;20010;-85
2022/07/16 01:14:11;;;;;;;;;;;;;;;;;;4883169;29;19931;-85
2022/07/16 01:16:37;;;;;;;;;;;;;;;;;;4874204;29;19957;-85
2022/07/16 01:19:03;;;;;;;;;;;;;;;;;;4850075;29;19931;-85
2022/07/16 01:21:29;;;;;;;;;;;;;;;;;;4855965;29;22107;-85
2022/07/16 01:23:55;;;;;;;;;;;;;;;;;;4847947;29;19937;-85
2022/07/16 01:26:21;;;;;;;;;;;;;;;;;;4855053;29;22766;-85
2022/07/16 01:28:47;;;;;;;;;;;;;;;;;;4868368;29;19990;-85
2022/07/16 01:31:13;;;;;;;;;;;;;;;;;;4870371;29;20371;-86
2022/07/16 01:33:39;;;;;;;;;;;;;;;;;;4866097;29;19938;-87
2022/07/16 01:36:05;;;;;;;;;;;;;;;;;;4847592;29;19931;-87
2022/07/16 01:38:31;;;;;;;;;;;;;;;;;;4868350;29;19923;-88
2022/07/16 01:40:57;;;;;;;;;;;;;;;;;;4869263;29;19937;-88
2022/07/16 01:43:23;;;;;;;;;;;;;;;;;;4886064;29;19926;-88
2022/07/16 01:45:49;;;;;;;;;;;;;;;;;;4868512;29;19942;-88
2022/07/16 01:48:15;;;;;;;;;;;;;;;;;;4868618;29;19927;-88
2022/07/16 01:50:42;;;;;;;;;;;;;;;;;;4889452;29;19934;-89
2022/07/16 01:53:08;;;;;;;;;;;;;;;;;;4867044;29;19931;-88
2022/07/16 01:55:33;;;;;;;;;;;;;;;;;;4870779;29;20439;-88
2022/07/16 01:57:59;;;;;;;;;;;;;;;;;;4867648;29;20856;-88
2022/07/16 02:00:26;;;;;;;;;;;;;;;;;;4873975;29;19970;-88
2022/07/16 02:02:52;;;;;;;;;;;;;;;;;;4882586;29;19937;-88
2022/07/16 02:05:18;;;;;;;;;;;;;;;;;;4891838;29;19938;-88
2022/07/16 02:07:44;;;;;;;;;;;;;;;;;;4869083;29;19938;-88
2022/07/16 02:10:10;;;;;;;;;;;;;;;;;;4852606;29;19947;-88
2022/07/16 02:12:36;;;;;;;;;;;;;;;;;;4878350;29;19934;-87
2022/07/16 02:15:02;;;;;;;;;;;;;;;;;;4867906;29;19927;-88
2022/07/16 02:17:27;;;;;;;;;;;;;;;;;;4868886;29;21628;-85
2022/07/16 02:19:53;;;;;;;;;;;;;;;;;;4863573;29;22223;-86
2022/07/16 02:22:19;;;;;;;;;;;;;;;;;;4870088;29;20384;-86
2022/07/16 02:24:45;;;;;;;;;;;;;;;;;;4875591;29;19990;-86
2022/07/16 02:27:11;;;;;;;;;;;;;;;;;;4891269;29;19974;-86
2022/07/16 02:29:37;;;;;;;;;;;;;;;;;;4874889;29;20018;-86
2022/07/16 02:32:03;;;;;;;;;;;;;;;;;;4869635;29;19931;-86
2022/07/16 02:34:29;;;;;;;;;;;;;;;;;;4856252;29;19930;-86
2022/07/16 02:36:55;;;;;;;;;;;;;;;;;;4854745;29;19927;-87
2022/07/16 02:39:21;;;;;;;;;;;;;;;;;;4856569;29;19931;-86
2022/07/16 02:41:47;;;;;;;;;;;;;;;;;;4856254;29;19938;-87
2022/07/16 02:44:13;;;;;;;;;;;;;;;;;;4874816;29;20406;-87
2022/07/16 02:46:39;;;;;;;;;;;;;;;;;;4858315;29;19986;-87
2022/07/16 02:49:05;;;;;;;;;;;;;;;;;;4872957;29;19927;-86
2022/07/16 02:51:31;;;;;;;;;;;;;;;;;;4873695;29;19927;-87
2022/07/16 02:53:57;;;;;;;;;;;;;;;;;;4863914;29;19938;-86
2022/07/16 02:56:23;;;;;;;;;;;;;;;;;;4870963;29;20386;-86
2022/07/16 02:58:49;;;;;;;;;;;;;;;;;;4845090;29;19931;-87
2022/07/16 03:01:15;;;;;;;;;;;;;;;;;;4867231;29;19927;-86
2022/07/16 03:03:41;;;;;;;;;;;;;;;;;;4847371;29;19938;-86
2022/07/16 03:06:07;;;;;;;;;;;;;;;;;;4863958;29;19935;-86
2022/07/16 03:08:33;;;;;;;;;;;;;;;;;;4848539;29;20330;-86
2022/07/16 03:10:59;;;;;;;;;;;;;;;;;;4863011;29;20560;-87
2022/07/16 03:13:25;;;;;;;;;;;;;;;;;;4866904;29;19939;-86
2022/07/16 03:15:51;;;;;;;;;;;;;;;;;;4849162;29;19935;-86
2022/07/16 03:18:16;;;;;;;;;;;;;;;;;;4866708;29;19927;-87
2022/07/16 03:20:42;;;;;;;;;;;;;;;;;;4881492;29;19931;-86
2022/07/16 03:23:08;;;;;;;;;;;;;;;;;;4865673;29;19995;-87
2022/07/16 03:25:34;;;;;;;;;;;;;;;;;;4871959;29;20370;-86
2022/07/16 03:28:00;;;;;;;;;;;;;;;;;;4862933;29;20362;-87
2022/07/16 03:30:26;;;;;;;;;;;;;;;;;;4870380;29;20343;-86
2022/07/16 03:32:52;;;;;;;;;;;;;;;;;;4865593;29;19938;-86
2022/07/16 03:35:18;;;;;;;;;;;;;;;;;;4888715;29;19931;-87
2022/07/16 03:40:29;;;;;;;;;;;;;;;;;;4867905;29;20751;-86
2022/07/16 03:42:55;;;;;;;;;;;;;;;;;;4864363;29;19927;-86
2022/07/16 03:45:21;;;;;;;;;;;;;;;;;;4871544;29;19982;-86
2022/07/16 03:47:47;;;;;;;;;;;;;;;;;;4866086;29;19931;-87
2022/07/16 03:50:16;;;;;;;;;;;;;;;;;;4868352;29;20413;-87
2022/07/16 03:52:42;;;;;;;;;;;;;;;;;;4855228;29;19923;-86
2022/07/16 03:55:08;;;;;;;;;;;;;;;;;;4851200;29;19931;-86
2022/07/16 03:57:34;;;;;;;;;;;;;;;;;;4852372;29;19979;-87
2022/07/16 04:00:00;;;;;;;;;;;;;;;;;;4865879;29;19931;-86
2022/07/16 04:02:26;;;;;;;;;;;;;;;;;;4868477;29;20220;-86
2022/07/16 04:04:51;;;;;;;;;;;;;;;;;;4853306;29;19927;-86
2022/07/16 04:07:17;;;;;;;;;;;;;;;;;;4853654;29;19927;-87
2022/07/16 04:09:43;;;;;;;;;;;;;;;;;;4867763;29;19937;-87
2022/07/16 04:12:09;;;;;;;;;;;;;;;;;;4846130;29;20073;-87
2022/07/16 04:14:35;;;;;;;;;;;;;;;;;;4868496;29;20355;-87
2022/07/16 04:17:01;;;;;;;;;;;;;;;;;;4864105;29;22521;-87
2022/07/16 04:19:27;;;;;;;;;;;;;;;;;;4879195;29;19923;-86
2022/07/16 04:21:53;;;;;;;;;;;;;;;;;;4872185;29;19973;-87
2022/07/16 04:24:19;;;;;;;;;;;;;;;;;;4874433;29;19927;-87
2022/07/16 04:26:45;;;;;;;;;;;;;;;;;;4876557;29;19950;-87
2022/07/16 04:29:13;;;;;;;;;;;;;;;;;;4850982;29;19962;-86
2022/07/16 04:31:39;;;;;;;;;;;;;;;;;;4859195;29;19931;-86
2022/07/16 04:34:04;;;;;;;;;;;;;;;;;;4859400;29;19927;-87
2022/07/16 04:36:30;;;;;;;;;;;;;;;;;;4864421;29;20029;-86
2022/07/16 04:38:56;;;;;;;;;;;;;;;;;;4870825;29;19927;-87
2022/07/16 04:41:22;;;;;;;;;;;;;;;;;;4875863;29;20035;-86
2022/07/16 04:43:48;;;;;;;;;;;;;;;;;;4870032;29;19923;-86
2022/07/16 04:46:14;;;;;;;;;;;;;;;;;;4875516;29;19927;-86
2022/07/16 04:48:40;;;;;;;;;;;;;;;;;;4874050;29;20476;-86
2022/07/16 04:51:06;;;;;;;;;;;;;;;;;;4850374;29;19931;-86
2022/07/16 04:53:32;;;;;;;;;;;;;;;;;;4853011;29;19938;-86
2022/07/16 04:55:58;;;;;;;;;;;;;;;;;;4862842;29;19923;-86
2022/07/16 04:58:24;;;;;;;;;;;;;;;;;;4851431;29;20013;-86
2022/07/16 05:00:50;;;;;;;;;;;;;;;;;;4846158;29;19935;-86
2022/07/16 05:03:16;;;;;;;;;;;;;;;;;;4866873;29;19927;-87
2022/07/16 05:05:42;;;;;;;;;;;;;;;;;;4868913;29;19954;-86
2022/07/16 05:08:08;;;;;;;;;;;;;;;;;;4863635;29;19935;-86
2022/07/16 05:10:34;;;;;;;;;;;;;;;;;;4857958;29;19930;-86
2022/07/16 05:13:00;;;;;;;;;;;;;;;;;;4854740;29;21511;-86
2022/07/16 05:15:26;;;;;;;;;;;;;;;;;;4874826;29;20030;-86
2022/07/16 05:17:52;;;;;;;;;;;;;;;;;;4848724;29;20444;-86
2022/07/16 05:20:18;;;;;;;;;;;;;;;;;;4853132;29;20066;-86
2022/07/16 05:22:44;;;;;;;;;;;;;;;;;;4871849;29;19927;-86
2022/07/16 05:25:10;;;;;;;;;;;;;;;;;;4858514;29;19934;-86
2022/07/16 05:27:36;;;;;;;;;;;;;;;;;;4850115;29;19985;-86
2022/07/16 05:30:02;;;;;;;;;;;;;;;;;;4859959;29;20009;-86
2022/07/16 05:32:28;;;;;;;;;;;;;;;;;;4873461;29;19923;-86
2022/07/16 05:34:54;;;;;;;;;;;;;;;;;;4864538;29;20605;-87
2022/07/16 05:37:20;;;;;;;;;;;;;;;;;;4869120;29;19939;-86
2022/07/16 05:39:46;;;;;;;;;;;;;;;;;;4865676;29;20922;-86
2022/07/16 05:42:12;;;;;;;;;;;;;;;;;;4856369;29;19943;-86
2022/07/16 05:44:38;;;;;;;;;;;;;;;;;;4874000;29;19982;-86
2022/07/16 05:47:04;;;;;;;;;;;;;;;;;;4866430;29;20366;-86
2022/07/16 05:49:30;;;;;;;;;;;;;;;;;;4858975;29;19923;-85
2022/07/16 05:51:56;;;;;;;;;;;;;;;;;;4868497;29;19931;-86
2022/07/16 05:54:22;;;;;;;;;;;;;;;;;;4853746;29;19931;-86
2022/07/16 05:56:48;;;;;;;;;;;;;;;;;;4882327;29;22777;-86
2022/07/16 05:59:15;;;;;;;;;;;;;;;;;;4868742;29;19931;-86
2022/07/16 06:01:41;;;;;;;;;;;;;;;;;;4870630;29;19938;-85
2022/07/16 06:04:07;;;;;;;;;;;;;;;;;;4867198;29;21879;-86
2022/07/16 06:06:33;;;;;;;;;;;;;;;;;;4855259;29;19935;-86
2022/07/16 06:08:59;;;;;;;;;;;;;;;;;;4850513;29;20029;-85
2022/07/16 06:11:24;;;;;;;;;;;;;;;;;;4869420;29;19933;-86
2022/07/16 06:13:50;;;;;;;;;;;;;;;;;;4862345;29;23022;-85
2022/07/16 06:16:16;;;;;;;;;;;;;;;;;;4877301;29;19930;-86
2022/07/16 06:18:42;;;;;;;;;;;;;;;;;;4879044;29;20030;-85
2022/07/16 06:21:08;;;;;;;;;;;;;;;;;;4860002;29;20018;-85
2022/07/16 06:23:34;;;;;;;;;;;;;;;;;;4879092;29;20041;-85
2022/07/16 06:26:00;;;;;;;;;;;;;;;;;;4875476;29;20064;-85
2022/07/16 06:28:26;;;;;;;;;;;;;;;;;;4860102;29;19975;-85
2022/07/16 06:30:52;;;;;;;;;;;;;;;;;;4866917;29;19931;-85
2022/07/16 06:33:18;;;;;;;;;;;;;;;;;;4862816;29;19931;-85
2022/07/16 06:35:44;;;;;;;;;;;;;;;;;;4881355;29;20026;-85
2022/07/16 06:38:10;;;;;;;;;;;;;;;;;;4861343;29;19931;-85
2022/07/16 06:40:36;;;;;;;;;;;;;;;;;;4877618;29;20403;-85
2022/07/16 06:43:02;;;;;;;;;;;;;;;;;;4872823;29;20014;-85
2022/07/16 06:45:28;;;;;;;;;;;;;;;;;;4877496;29;19923;-85
2022/07/16 06:47:54;;;;;;;;;;;;;;;;;;4851864;29;19931;-85
2022/07/16 06:50:21;;;;;;;;;;;;;;;;;;4872163;29;19979;-86
2022/07/16 06:52:47;;;;;;;;;;;;;;;;;;4864953;29;20621;-85
2022/07/16 06:55:13;;;;;;;;;;;;;;;;;;4866937;29;19959;-85
2022/07/16 06:57:39;;;;;;;;;;;;;;;;;;4852834;29;21217;-85
2022/07/16 07:00:05;;;;;;;;;;;;;;;;;;4852174;29;20035;-85
2022/07/16 07:02:31;;;;;;;;;;;;;;;;;;4866193;29;19944;-85
2022/07/16 07:04:57;;;;;;;;;;;;;;;;;;4851540;29;20334;-85
2022/07/16 07:07:23;;;;;;;;;;;;;;;;;;4873521;29;19927;-85
2022/07/16 07:09:49;;;;;;;;;;;;;;;;;;4865416;29;20390;-85
2022/07/16 07:12:15;;;;;;;;;;;;;;;;;;4856288;29;19991;-85
2022/07/16 07:14:41;;;;;;;;;;;;;;;;;;4869910;29;20352;-85
2022/07/16 07:17:07;;;;;;;;;;;;;;;;;;4867339;29;20350;-85
2022/07/16 07:19:33;;;;;;;;;;;;;;;;;;4847019;29;20026;-86
2022/07/16 07:21:59;;;;;;;;;;;;;;;;;;4861901;29;19976;-85
2022/07/16 07:24:25;;;;;;;;;;;;;;;;;;4848108;29;19938;-86
2022/07/16 07:26:51;;;;;;;;;;;;;;;;;;4862992;29;20433;-85
2022/07/16 07:29:17;;;;;;;;;;;;;;;;;;4871046;29;19931;-87
2022/07/16 07:31:43;;;;;;;;;;;;;;;;;;4860549;29;19931;-85
2022/07/16 07:34:09;;;;;;;;;;;;;;;;;;4837740;29;20085;-86
2022/07/16 07:36:35;;;;;;;;;;;;;;;;;;4862905;29;19938;-85
2022/07/16 07:39:00;;;;;;;;;;;;;;;;;;4843006;29;20280;-86
2022/07/16 07:41:27;;;;;;;;;;;;;;;;;;4847341;29;19923;-85
2022/07/16 07:43:52;;;;;;;;;;;;;;;;;;4860895;29;20408;-86
2022/07/16 07:46:20;;;;;;;;;;;;;;;;;;4867780;29;19931;-85
2022/07/16 07:48:48;;;;;;;;;;;;;;;;;;4867778;29;19939;-85
2022/07/16 07:51:14;;;;;;;;;;;;;;;;;;4862774;29;20025;-86
2022/07/16 07:53:40;;;;;;;;;;;;;;;;;;4864493;29;21489;-85
2022/07/16 07:56:06;;;;;;;;;;;;;;;;;;4843999;29;21722;-86
2022/07/16 07:58:32;;;;;;;;;;;;;;;;;;4850041;29;19993;-86
2022/07/16 08:00:58;;;;;;;;;;;;;;;;;;4846209;29;19930;-85
2022/07/16 08:03:24;;;;;;;;;;;;;;;;;;4864836;29;20748;-86
2022/07/16 08:05:50;;;;;;;;;;;;;;;;;;4847613;29;20046;-86
2022/07/16 08:08:16;;;;;;;;;;;;;;;;;;4863795;29;19946;-86
2022/07/16 08:10:42;;;;;;;;;;;;;;;;;;4851029;29;19932;-85
2022/07/16 08:13:08;;;;;;;;;;;;;;;;;;4848755;29;19931;-87
2022/07/16 08:15:34;;;;;;;;;;;;;;;;;;4848483;29;20678;-85
2022/07/16 08:18:00;;;;;;;;;;;;;;;;;;4846688;29;19958;-85
2022/07/16 08:20:26;;;;;;;;;;;;;;;;;;4871548;29;20433;-86
2022/07/16 08:22:51;;;;;;;;;;;;;;;;;;4858226;29;19934;-87
2022/07/16 08:28:02;;;;;;;;;;;;;;;;;;4869988;29;20074;-85
2022/07/16 08:30:28;;;;;;;;;;;;;;;;;;4859794;29;19942;-85
2022/07/16 08:32:56;;;;;;;;;;;;;;;;;;4859621;29;20220;-85
2022/07/16 08:35:22;;;;;;;;;;;;;;;;;;4867713;29;20026;-85
2022/07/16 08:37:48;;;;;;;;;;;;;;;;;;4864696;29;20369;-85
2022/07/16 08:40:14;;;;;;;;;;;;;;;;;;4883739;29;19927;-85
2022/07/16 08:42:40;;;;;;;;;;;;;;;;;;4882029;29;19935;-84
2022/07/16 08:45:06;;;;;;;;;;;;;;;;;;4854521;29;20512;-85
2022/07/16 08:47:32;;;;;;;;;;;;;;;;;;4872862;29;19935;-85
2022/07/16 08:49:58;;;;;;;;;;;;;;;;;;4867433;29;19933;-85
2022/07/16 08:52:24;;;;;;;;;;;;;;;;;;4871643;29;19955;-86
2022/07/16 08:54:49;;;;;;;;;;;;;;;;;;4881481;29;19943;-85
2022/07/16 08:57:15;;;;;;;;;;;;;;;;;;4863615;29;20386;-86
2022/07/16 08:59:41;;;;;;;;;;;;;;;;;;4874933;29;21582;-86
2022/07/16 09:02:07;;;;;;;;;;;;;;;;;;4869405;29;19939;-86
2022/07/16 09:04:33;;;;;;;;;;;;;;;;;;4853102;29;19931;-85
2022/07/16 09:06:59;;;;;;;;;;;;;;;;;;4861415;29;19935;-86
2022/07/16 09:09:25;;;;;;;;;;;;;;;;;;4883406;29;19935;-86
2022/07/16 09:11:51;;;;;;;;;;;;;;;;;;4877649;29;19927;-86
2022/07/16 09:14:18;;;;;;;;;;;;;;;;;;4878613;29;19927;-85
2022/07/16 09:16:44;;;;;;;;;;;;;;;;;;4863623;29;19974;-85
2022/07/16 09:19:10;;;;;;;;;;;;;;;;;;4861003;29;22879;-85
2022/07/16 09:21:36;;;;;;;;;;;;;;;;;;4879959;29;19927;-85
2022/07/16 09:24:02;;;;;;;;;;;;;;;;;;4865920;29;19931;-86
2022/07/16 09:26:28;;;;;;;;;;;;;;;;;;4862199;29;20058;-85
2022/07/16 09:28:54;;;;;;;;;;;;;;;;;;4846308;29;19927;-85
2022/07/16 09:31:20;;;;;;;;;;;;;;;;;;4864846;29;20324;-85
2022/07/16 09:33:46;;;;;;;;;;;;;;;;;;4846269;29;19935;-85
2022/07/16 09:36:12;;;;;;;;;;;;;;;;;;4866595;29;19973;-85
2022/07/16 09:38:38;;;;;;;;;;;;;;;;;;4851297;29;20482;-85
2022/07/16 09:41:04;;;;;;;;;;;;;;;;;;4860954;29;19987;-85
2022/07/16 09:43:30;;;;;;;;;;;;;;;;;;4865612;29;20301;-85
2022/07/16 09:45:56;;;;;;;;;;;;;;;;;;4848907;29;20017;-86
2022/07/16 09:48:22;;;;;;;;;;;;;;;;;;4870175;29;19970;-84
2022/07/16 09:50:48;;;;;;;;;;;;;;;;;;4859550;29;20570;-87
2022/07/16 09:53:14;;;;;;;;;;;;;;;;;;4876619;29;19932;-86
2022/07/16 09:55:40;;;;;;;;;;;;;;;;;;4845117;29;19966;-85
2022/07/16 09:58:06;;;;;;;;;;;;;;;;;;4857492;29;19961;-85
2022/07/16 10:00:32;;;;;;;;;;;;;;;;;;4868684;29;19935;-85
2022/07/16 10:02:58;;;;;;;;;;;;;;;;;;4857660;29;19931;-86
2022/07/16 10:05:24;;;;;;;;;;;;;;;;;;4880558;29;20595;-87
2022/07/16 10:07:51;;;;;;;;;;;;;;;;;;4839855;29;20421;-86
2022/07/16 10:10:17;;;;;;;;;;;;;;;;;;4863676;29;19946;-88
2022/07/16 10:12:44;;;;;;;;;;;;;;;;;;4885702;29;20013;-86
2022/07/16 10:15:10;;;;;;;;;;;;;;;;;;4864813;29;20068;-87
2022/07/16 10:17:37;;;;;;;;;;;;;;;;;;4867537;29;19927;-87
2022/07/16 10:20:08;;;;;;;;;;;;;;;;;;4867136;29;19958;-88
2022/07/16 10:22:34;;;;;;;;;;;;;;;;;;4873513;29;20398;-88
2022/07/16 10:25:00;;;;;;;;;;;;;;;;;;4872838;29;19930;-86
2022/07/16 10:27:26;;;;;;;;;;;;;;;;;;4874863;29;19931;-89
2022/07/16 10:29:52;;;;;;;;;;;;;;;;;;4868384;29;19933;-88
2022/07/16 10:32:27;;;;;;;;;;;;;;;;;;4859165;29;19927;-87
2022/07/16 10:34:53;;;;;;;;;;;;;;;;;;4854667;29;19934;-87
2022/07/16 10:37:18;;;;;;;;;;;;;;;;;;4881150;29;19927;-88
2022/07/16 10:39:44;;;;;;;;;;;;;;;;;;4894682;29;19938;-88
2022/07/16 10:42:10;;;;;;;;;;;;;;;;;;4874354;29;19931;-86
2022/07/16 10:44:36;;;;;;;;;;;;;;;;;;4870239;29;20294;-86
2022/07/16 10:47:03;;;;;;;;;;;;;;;;;;4862830;29;19931;-88
2022/07/16 10:49:29;;;;;;;;;;;;;;;;;;4883473;29;20006;-88
2022/07/16 10:51:56;;;;;;;;;;;;;;;;;;4865020;29;20294;-88
2022/07/16 10:54:22;;;;;;;;;;;;;;;;;;4883055;29;19931;-88
2022/07/16 10:56:48;;;;;;;;;;;;;;;;;;4861464;29;19933;-88
2022/07/16 10:59:14;;;;;;;;;;;;;;;;;;4878803;29;20594;-89
2022/07/16 11:01:39;;;;;;;;;;;;;;;;;;4856758;29;20010;-88
2022/07/16 11:04:05;;;;;;;;;;;;;;;;;;4865925;29;20489;-88
2022/07/16 11:06:32;;;;;;;;;;;;;;;;;;4852306;29;19931;-88
2022/07/16 11:08:58;;;;;;;;;;;;;;;;;;4843914;29;19980;-88
2022/07/16 11:11:24;;;;;;;;;;;;;;;;;;4862342;29;19927;-88
2022/07/16 11:13:50;;;;;;;;;;;;;;;;;;4846704;29;19931;-87
2022/07/16 11:16:37;;;;;;;;;;;;;;;;;;4867261;29;19938;-88
2022/07/16 11:19:12;;;;;;;;;;;;;;;;;;4882786;29;19991;-89
2022/07/16 11:21:38;;;;;;;;;;;;;;;;;;4853071;29;19978;-88
2022/07/16 11:24:05;;;;;;;;;;;;;;;;;;4844317;29;20029;-88
2022/07/16 11:26:31;;;;;;;;;;;;;;;;;;4887501;29;19931;-88
2022/07/16 11:28:58;;;;;;;;;;;;;;;;;;4883138;29;23923;-88
2022/07/16 11:31:24;;;;;;;;;;;;;;;;;;4853663;29;19931;-89
2022/07/16 11:33:50;;;;;;;;;;;;;;;;;;4864914;29;20021;-87
2022/07/16 11:36:16;;;;;;;;;;;;;;;;;;4864248;29;20329;-89
2022/07/16 11:38:42;;;;;;;;;;;;;;;;;;4866953;29;20382;-88
2022/07/16 11:41:08;;;;;;;;;;;;;;;;;;4878051;29;20029;-88
2022/07/16 11:43:34;;;;;;;;;;;;;;;;;;4870253;29;19927;-88
2022/07/16 11:46:00;;;;;;;;;;;;;;;;;;4862862;29;20272;-88
2022/07/16 11:48:26;;;;;;;;;;;;;;;;;;4855105;29;19938;-87
2022/07/16 11:50:53;;;;;;;;;;;;;;;;;;4866446;29;19962;-88
2022/07/16 11:53:19;;;;;;;;;;;;;;;;;;4864371;29;19937;-89
2022/07/16 11:55:45;;;;;;;;;;;;;;;;;;4874570;29;19927;-89
2022/07/16 11:58:12;;;;;;;;;;;;;;;;;;4878419;29;20013;-88
2022/07/16 12:00:37;;;;;;;;;;;;;;;;;;4863466;29;19931;-87
2022/07/16 12:03:03;;;;;;;;;;;;;;;;;;4858079;29;19935;-87
2022/07/16 12:05:29;;;;;;;;;;;;;;;;;;4863273;29;19953;-88
2022/07/16 12:07:55;;;;;;;;;;;;;;;;;;4846099;29;19990;-88
2022/07/16 12:10:21;;;;;;;;;;;;;;;;;;4854971;29;19938;-88
2022/07/16 12:12:47;;;;;;;;;;;;;;;;;;4851134;29;19934;-89
2022/07/16 12:15:13;;;;;;;;;;;;;;;;;;4856367;29;19942;-87
2022/07/16 12:17:39;;;;;;;;;;;;;;;;;;4860281;29;19938;-86
2022/07/16 12:20:05;;;;;;;;;;;;;;;;;;4855377;29;20271;-86
2022/07/16 12:22:31;;;;;;;;;;;;;;;;;;4870567;29;20006;-87
2022/07/16 12:24:57;;;;;;;;;;;;;;;;;;4863521;29;19927;-86
2022/07/16 12:27:23;;;;;;;;;;;;;;;;;;4848780;29;20005;-89
2022/07/16 12:29:50;;;;;;;;;;;;;;;;;;4859872;29;20038;-87
2022/07/16 12:32:16;;;;;;;;;;;;;;;;;;4879490;29;19935;-85
2022/07/16 12:34:41;;;;;;;;;;;;;;;;;;4881253;29;19927;-86
2022/07/16 12:37:07;;;;;;;;;;;;;;;;;;4864738;29;21692;-88
2022/07/16 12:39:33;;;;;;;;;;;;;;;;;;4864103;29;20030;-85
2022/07/16 12:41:59;;;;;;;;;;;;;;;;;;4842992;29;20003;-84
2022/07/16 12:44:25;;;;;;;;;;;;;;;;;;4866522;29;19927;-85
2022/07/16 12:46:54;;;;;;;;;;;;;;;;;;4857882;29;20702;-89
2022/07/16 12:49:20;;;;;;;;;;;;;;;;;;4879298;29;20379;-87
2022/07/16 12:51:48;;;;;;;;;;;;;;;;;;4848371;29;19931;-87
2022/07/16 12:54:14;;;;;;;;;;;;;;;;;;4863069;29;19981;-86
2022/07/16 12:59:25;;;;;;;;;;;;;;;;;;4880535;29;20374;-85
2022/07/16 13:01:51;;;;;;;;;;;;;;;;;;4858287;29;19931;-85
2022/07/16 13:04:17;;;;;;;;;;;;;;;;;;4848276;29;19931;-85
2022/07/16 13:06:44;;;;;;;;;;;;;;;;;;4867789;29;19950;-85
2022/07/16 13:09:09;;;;;;;;;;;;;;;;;;4845496;29;20026;-84
2022/07/16 13:11:36;;;;;;;;;;;;;;;;;;4859133;29;19927;-84
2022/07/16 13:14:02;;;;;;;;;;;;;;;;;;4844544;29;20859;-84
2022/07/16 13:16:29;;;;;;;;;;;;;;;;;;4847807;29;19942;-86
2022/07/16 13:18:55;;;;;;;;;;;;;;;;;;4864896;29;20134;-85
2022/07/16 13:21:22;;;;;;;;;;;;;;;;;;4870681;29;19931;-88
2022/07/16 13:23:49;;;;;;;;;;;;;;;;;;4863895;29;19924;-88
2022/07/16 13:26:15;;;;;;;;;;;;;;;;;;4856238;29;20350;-86
2022/07/16 13:28:41;;;;;;;;;;;;;;;;;;4890847;29;19967;-87
2022/07/16 13:31:06;;;;;;;;;;;;;;;;;;4853370;29;21796;-85
2022/07/16 13:33:32;;;;;;;;;;;;;;;;;;4887177;29;19934;-85
2022/07/16 13:35:58;;;;;;;;;;;;;;;;;;4889755;29;19923;-85
2022/07/16 13:38:25;;;;;;;;;;;;;;;;;;4891014;29;19938;-87
2022/07/16 13:40:51;;;;;;;;;;;;;;;;;;4891208;29;19927;-85
2022/07/16 13:43:17;;;;;;;;;;;;;;;;;;4868113;29;19942;-86
2022/07/16 13:45:49;;;;;;;;;;;;;;;;;;4876576;29;19939;-87
2022/07/16 13:48:15;;;;;;;;;;;;;;;;;;4869953;29;19923;-87
2022/07/16 13:50:41;;;;;;;;;;;;;;;;;;4879215;29;20381;-89
2022/07/16 13:53:07;;;;;;;;;;;;;;;;;;4853971;29;19938;-89
2022/07/16 13:55:33;;;;;;;;;;;;;;;;;;4875624;29;19933;-89
2022/07/16 13:58:15;;;;;;;;;;;;;;;;;;4856686;29;19927;-88
2022/07/16 14:00:40;;;;;;;;;;;;;;;;;;4882201;29;19934;-89
2022/07/16 14:03:06;;;;;;;;;;;;;;;;;;4873811;29;21788;-90
2022/07/16 14:05:32;;;;;;;;;;;;;;;;;;4861418;29;20228;-89
2022/07/16 14:07:58;;;;;;;;;;;;;;;;;;4874410;29;20009;-89
2022/07/16 14:10:24;;;;;;;;;;;;;;;;;;4863563;29;19927;-88
2022/07/16 14:12:50;;;;;;;;;;;;;;;;;;4852030;29;20387;-86
2022/07/16 14:15:16;;;;;;;;;;;;;;;;;;4858724;29;19927;-87
2022/07/16 14:17:42;;;;;;;;;;;;;;;;;;4857477;29;19933;-85
2022/07/16 14:20:08;;;;;;;;;;;;;;;;;;4864847;29;22601;-84
2022/07/16 14:22:34;;;;;;;;;;;;;;;;;;4873072;29;19979;-86
2022/07/16 14:25:01;;;;;;;;;;;;;;;;;;4854029;29;19923;-88
2022/07/16 14:27:27;;;;;;;;;;;;;;;;;;4875307;29;19926;-87
2022/07/16 14:29:54;;;;;;;;;;;;;;;;;;4845491;29;19938;-85
2022/07/16 14:32:21;;;;;;;;;;;;;;;;;;4856034;29;20049;-88
2022/07/16 14:34:50;;;;;;;;;;;;;;;;;;4862730;29;20449;-87
2022/07/16 14:37:48;;;;;;;;;;;;;;;;;;4875216;29;19954;-88
2022/07/16 14:40:16;;;;;;;;;;;;;;;;;;4854273;29;19970;-87
2022/07/16 14:42:45;;;;;;;;;;;;;;;;;;4866375;29;20547;-86
2022/07/16 14:45:14;;;;;;;;;;;;;;;;;;4875593;29;19927;-87
2022/07/16 14:47:40;;;;;;;;;;;;;;;;;;4852688;29;19928;-86
2022/07/16 14:50:16;;;;;;;;;;;;;;;;;;4847125;29;19938;-86
2022/07/16 14:52:56;;;;;;;;;;;;;;;;;;4866839;29;19927;-87
2022/07/16 14:55:28;;;;;;;;;;;;;;;;;;4866137;29;20326;-85
2022/07/16 14:57:59;;;;;;;;;;;;;;;;;;4847982;29;20444;-86
2022/07/16 15:00:40;;;;;;;;;;;;;;;;;;4871414;29;20018;-87
2022/07/16 15:03:09;;;;;;;;;;;;;;;;;;4852107;29;19935;-85
2022/07/16 15:05:38;;;;;;;;;;;;;;;;;;4849520;29;19931;-86
2022/07/16 15:08:04;;;;;;;;;;;;;;;;;;4837011;29;20867;-85
2022/07/16 15:10:30;;;;;;;;;;;;;;;;;;4858746;29;19932;-85
2022/07/16 15:12:56;;;;;;;;;;;;;;;;;;4861594;29;20476;-84
2022/07/16 15:15:22;;;;;;;;;;;;;;;;;;4868735;29;19962;-85
2022/07/16 15:17:48;;;;;;;;;;;;;;;;;;4865523;29;20607;-83
2022/07/16 15:20:14;;;;;;;;;;;;;;;;;;4865232;29;19931;-87
2022/07/16 15:22:40;;;;;;;;;;;;;;;;;;4849734;29;19931;-85
2022/07/16 15:25:06;;;;;;;;;;;;;;;;;;4846772;29;20058;-84
2022/07/16 15:27:32;;;;;;;;;;;;;;;;;;4864556;29;20073;-86
2022/07/16 15:29:58;;;;;;;;;;;;;;;;;;4849369;29;20900;-87
2022/07/16 15:32:24;;;;;;;;;;;;;;;;;;4848289;29;20694;-85
2022/07/16 15:34:50;;;;;;;;;;;;;;;;;;4864013;29;19980;-86
2022/07/16 15:37:16;;;;;;;;;;;;;;;;;;4868476;29;19930;-86
2022/07/16 15:39:42;;;;;;;;;;;;;;;;;;4860488;29;20016;-86
2022/07/16 15:42:08;;;;;;;;;;;;;;;;;;4847488;29;19938;-85
2022/07/16 15:44:35;;;;;;;;;;;;;;;;;;4846504;29;20594;-86
2022/07/16 15:47:01;;;;;;;;;;;;;;;;;;4882055;29;19935;-87
2022/07/16 15:49:27;;;;;;;;;;;;;;;;;;4865749;29;20412;-85
2022/07/16 15:51:56;;;;;;;;;;;;;;;;;;4875406;29;20363;-84
2022/07/16 15:54:22;;;;;;;;;;;;;;;;;;4877475;29;19931;-88
2022/07/16 15:56:51;;;;;;;;;;;;;;;;;;4856981;29;19986;-88
2022/07/16 15:59:16;;;;;;;;;;;;;;;;;;4864599;29;19931;-89
2022/07/16 16:01:42;;;;;;;;;;;;;;;;;;4860731;29;20390;-87
2022/07/16 16:04:08;;;;;;;;;;;;;;;;;;4848392;29;19948;-85
2022/07/16 16:06:34;;;;;;;;;;;;;;;;;;4861636;29;19931;-87
2022/07/16 16:09:00;;;;;;;;;;;;;;;;;;4860299;29;19935;-85
2022/07/16 16:11:26;;;;;;;;;;;;;;;;;;4884011;29;19931;-86
2022/07/16 16:13:52;;;;;;;;;;;;;;;;;;4850182;29;19931;-86
2022/07/16 16:16:18;;;;;;;;;;;;;;;;;;4875406;29;19927;-86
2022/07/16 16:18:44;;;;;;;;;;;;;;;;;;4869219;29;19931;-85
2022/07/16 16:21:10;;;;;;;;;;;;;;;;;;4848971;29;21030;-85
2022/07/16 16:23:37;;;;;;;;;;;;;;;;;;4866613;29;19923;-87
2022/07/16 16:26:07;;;;;;;;;;;;;;;;;;4866675;29;19935;-84
2022/07/16 16:28:33;;;;;;;;;;;;;;;;;;4853842;29;20061;-87
2022/07/16 16:30:59;;;;;;;;;;;;;;;;;;4866123;29;19941;-87
2022/07/16 16:33:26;;;;;;;;;;;;;;;;;;4853530;29;20559;-87
2022/07/16 16:35:51;;;;;;;;;;;;;;;;;;4864339;29;19931;-86
2022/07/16 16:38:17;;;;;;;;;;;;;;;;;;4871509;29;20386;-86
2022/07/16 16:40:43;;;;;;;;;;;;;;;;;;4870564;29;20057;-88
2022/07/16 16:43:09;;;;;;;;;;;;;;;;;;4854141;29;20501;-87
2022/07/16 16:45:37;;;;;;;;;;;;;;;;;;4867264;29;19931;-89
2022/07/16 16:48:03;;;;;;;;;;;;;;;;;;4846806;29;20021;-90
2022/07/16 16:50:30;;;;;;;;;;;;;;;;;;4862468;29;19962;-87
2022/07/16 16:52:56;;;;;;;;;;;;;;;;;;4861244;29;19979;-84